createdAt,value
2018-01-04T00:00:19.622Z,10.87
2018-01-04T00:02:50.455Z,3.13
2018-01-04T00:05:21.434Z,6.80
2018-01-04T00:07:52.273Z,6.62
2018-01-04T00:10:23.033Z,6.60
2018-01-04T00:12:53.844Z,5.70
2018-01-04T00:15:24.632Z,5.80
2018-01-04T00:17:55.384Z,8.93
2018-01-04T00:20:26.128Z,8.43
2018-01-04T00:22:56.900Z,7.13
2018-01-04T00:25:27.673Z,6.83
2018-01-04T00:27:58.526Z,10.23
2018-01-04T00:30:29.288Z,3.73
2018-01-04T00:33:00.100Z,6.00
2018-01-04T00:35:30.884Z,7.90
2018-01-04T00:38:02.740Z,5.63
2018-01-04T00:40:33.484Z,7.28
2018-01-04T00:43:04.843Z,8.03
2018-01-04T00:45:35.600Z,6.37
2018-01-04T00:48:06.367Z,7.03
2018-01-04T00:50:37.197Z,6.30
2018-01-04T00:53:07.968Z,12.47
2018-01-04T00:55:38.724Z,8.03
2018-01-04T00:58:09.493Z,8.23
2018-01-04T01:00:40.258Z,6.17
2018-01-04T01:03:11.150Z,11.30
2018-01-04T01:05:41.908Z,4.57
2018-01-04T01:08:25.652Z,3.20
2018-01-04T01:10:56.412Z,7.37
2018-01-04T01:13:27.217Z,7.00
2018-01-04T01:15:58.017Z,7.23
2018-01-04T01:18:28.776Z,11.47
2018-01-04T01:20:59.521Z,8.43
2018-01-04T01:23:30.292Z,9.20
2018-01-04T01:26:01.098Z,8.57
2018-01-04T01:28:31.845Z,5.20
2018-01-04T01:31:02.598Z,13.30
2018-01-04T01:33:33.896Z,9.77
2018-01-04T01:36:04.647Z,8.23
2018-01-04T01:38:35.408Z,7.73
2018-01-04T01:41:06.144Z,4.87
2018-01-04T01:43:36.932Z,11.60
2018-01-04T01:46:07.764Z,8.00
2018-01-04T01:48:38.568Z,6.20
2018-01-04T01:51:09.525Z,8.10
2018-01-04T01:53:41.392Z,4.53
2018-01-04T01:56:12.159Z,6.40
2018-01-04T01:58:42.979Z,6.97
2018-01-04T02:01:13.815Z,8.23
2018-01-04T02:03:44.602Z,4.90
2018-01-04T02:06:15.369Z,6.30
2018-01-04T02:08:46.129Z,8.37
2018-01-04T02:11:16.867Z,6.27
2018-01-04T02:13:47.660Z,7.27
2018-01-04T02:16:20.177Z,8.20
2018-01-04T02:19:03.264Z,6.68
2018-01-04T02:21:46.437Z,7.37
2018-01-04T02:24:30.008Z,5.65
2018-01-04T02:27:13.133Z,5.47
2018-01-04T02:29:56.278Z,9.65
2018-01-04T02:32:39.553Z,5.32
2018-01-04T02:35:10.395Z,5.50
2018-01-04T02:37:53.600Z,7.60
2018-01-04T02:40:36.833Z,7.47
2018-01-04T02:43:19.896Z,13.05
2018-01-04T02:46:00.912Z,9.55
2018-01-04T02:48:32.024Z,4.30
2018-01-04T02:51:02.873Z,8.32
2018-01-04T02:53:33.632Z,5.57
2018-01-04T02:56:06.416Z,6.83
2018-01-04T02:58:37.168Z,8.02
2018-01-04T03:01:07.986Z,4.53
2018-01-04T03:03:38.792Z,5.00
2018-01-04T03:06:09.568Z,7.00
2018-01-04T03:08:43.086Z,5.03
2018-01-04T03:11:13.901Z,5.18
2018-01-04T03:13:44.701Z,5.10
2018-01-04T03:16:16.560Z,4.67
2018-01-04T03:18:49.361Z,3.50
2018-01-04T03:21:20.137Z,3.15
2018-01-04T03:23:50.892Z,6.70
2018-01-04T03:26:27.692Z,5.27
2018-01-04T03:29:04.449Z,7.18
2018-01-04T03:31:41.381Z,3.60
2018-01-04T03:34:18.212Z,5.07
2018-01-04T03:36:55.055Z,4.00
2018-01-04T03:39:25.824Z,3.85
2018-01-04T03:42:02.857Z,4.10
2018-01-04T03:44:39.714Z,4.10
2018-01-04T03:47:16.568Z,3.33
2018-01-04T03:49:53.389Z,6.18
2018-01-04T03:52:30.140Z,4.35
2018-01-04T03:55:07.269Z,11.20
2018-01-04T03:57:44.214Z,8.65
2018-01-04T04:00:21.416Z,7.60
2018-01-04T04:02:55.237Z,5.60
2018-01-04T04:05:31.976Z,5.40
2018-01-04T04:08:10.901Z,4.70
2018-01-04T04:10:41.653Z,8.13
2018-01-04T04:13:12.431Z,4.97
2018-01-04T04:15:43.178Z,2.43
2018-01-04T04:18:13.969Z,5.10
2018-01-04T04:20:45.812Z,5.00
2018-01-04T04:23:16.573Z,10.50
2018-01-04T04:25:47.347Z,8.63
2018-01-04T04:28:18.132Z,6.30
2018-01-04T04:30:48.884Z,4.33
2018-01-04T04:33:19.648Z,6.30
2018-01-04T04:35:50.429Z,6.20
2018-01-04T04:38:21.225Z,6.27
2018-01-04T04:40:51.984Z,4.83
2018-01-04T04:43:22.768Z,5.47
2018-01-04T04:45:53.525Z,3.27
2018-01-04T04:48:24.308Z,2.53
2018-01-04T04:50:55.143Z,4.70
2018-01-04T04:53:25.964Z,8.90
2018-01-04T04:55:56.729Z,7.47
2018-01-04T04:58:27.500Z,5.00
2018-01-04T05:00:58.252Z,2.80
2018-01-04T05:03:30.450Z,5.03
2018-01-04T05:06:01.354Z,3.83
2018-01-04T05:08:32.136Z,5.47
2018-01-04T05:11:02.897Z,5.10
2018-01-04T05:13:33.689Z,7.13
2018-01-04T05:16:04.643Z,7.83
2018-01-04T05:18:35.564Z,7.87
2018-01-04T05:21:06.373Z,4.73
2018-01-04T05:23:37.167Z,8.37
2018-01-04T05:26:07.932Z,4.37
2018-01-04T05:28:45.047Z,9.87
2018-01-04T05:31:16.002Z,5.78
2018-01-04T05:33:46.806Z,4.87
2018-01-04T05:36:17.554Z,3.10
2018-01-04T05:38:48.890Z,6.63
2018-01-04T05:41:19.661Z,6.47
2018-01-04T05:43:50.435Z,4.83
2018-01-04T05:46:21.217Z,8.00
2018-01-04T05:48:52.008Z,6.50
2018-01-04T05:51:22.756Z,8.10
2018-01-04T05:53:53.617Z,5.83
2018-01-04T05:56:24.819Z,5.43
2018-01-04T05:58:55.568Z,6.68
2018-01-04T06:01:26.342Z,4.23
2018-01-04T06:03:57.097Z,6.37
2018-01-04T06:06:27.843Z,5.33
2018-01-04T06:08:58.616Z,4.37
2018-01-04T06:11:29.423Z,4.60
2018-01-04T06:14:00.202Z,8.00
2018-01-04T06:16:30.957Z,2.53
2018-01-04T06:19:01.718Z,10.13
2018-01-04T06:21:32.466Z,4.97
2018-01-04T06:24:03.237Z,8.40
2018-01-04T06:26:33.986Z,8.47
2018-01-04T06:29:04.769Z,8.23
2018-01-04T06:31:35.517Z,4.67
2018-01-04T06:34:06.268Z,6.47
2018-01-04T06:36:37.020Z,6.20
2018-01-04T06:39:07.768Z,10.40
2018-01-04T06:41:38.508Z,6.37
2018-01-04T06:44:09.276Z,6.83
2018-01-04T06:46:40.028Z,3.17
2018-01-04T06:49:10.794Z,6.17
2018-01-04T06:52:02.617Z,3.70
2018-01-04T06:54:33.386Z,2.70
2018-01-04T06:57:04.160Z,4.20
2018-01-04T06:59:34.923Z,4.57
2018-01-04T07:02:05.693Z,2.63
2018-01-04T07:04:36.468Z,6.20
2018-01-04T07:07:07.228Z,5.47
2018-01-04T07:09:42.872Z,5.70
2018-01-04T07:12:14.717Z,5.10
2018-01-04T07:14:45.486Z,6.55
2018-01-04T07:17:16.253Z,5.23
2018-01-04T07:19:47.010Z,2.80
2018-01-04T07:22:21.946Z,4.70
2018-01-04T07:24:52.729Z,5.07
2018-01-04T07:27:23.521Z,6.57
2018-01-04T07:29:54.288Z,3.40
2018-01-04T07:32:25.056Z,7.07
2018-01-04T07:34:55.933Z,4.50
2018-01-04T07:37:26.748Z,4.23
2018-01-04T07:39:57.558Z,4.83
2018-01-04T07:42:35.580Z,5.70
2018-01-04T07:45:06.345Z,4.90
2018-01-04T07:47:37.097Z,3.93
2018-01-04T07:50:07.844Z,7.30
2018-01-04T07:52:38.592Z,5.73
2018-01-04T07:55:09.364Z,2.03
2018-01-04T07:57:40.116Z,1.70
2018-01-04T08:00:10.886Z,4.17
2018-01-04T08:02:41.659Z,3.13
2018-01-04T08:05:12.429Z,5.33
2018-01-04T08:07:43.163Z,2.53
2018-01-04T08:10:13.929Z,4.40
2018-01-04T08:12:44.688Z,4.03
2018-01-04T08:15:15.456Z,4.83
2018-01-04T08:17:46.215Z,1.57
2018-01-04T08:20:16.994Z,3.50
2018-01-04T08:22:47.744Z,3.63
2018-01-04T08:25:18.501Z,5.13
2018-01-04T08:27:49.262Z,2.17
2018-01-04T08:30:20.045Z,3.13
2018-01-04T08:32:52.816Z,1.87
2018-01-04T08:35:24.684Z,4.37
2018-01-04T08:37:55.437Z,1.85
2018-01-04T08:40:26.204Z,3.90
2018-01-04T08:42:56.956Z,4.07
2018-01-04T08:45:27.769Z,2.57
2018-01-04T08:47:58.524Z,1.60
2018-01-04T08:50:29.288Z,2.50
2018-01-04T08:53:00.034Z,1.73
2018-01-04T08:55:30.848Z,2.60
2018-01-04T08:58:01.584Z,3.30
2018-01-04T09:00:32.344Z,5.40
2018-01-04T09:03:03.093Z,1.97
2018-01-04T09:05:33.925Z,2.23
2018-01-04T09:08:12.733Z,1.60
2018-01-04T09:10:49.512Z,1.80
2018-01-04T09:13:20.269Z,1.35
2018-01-04T09:15:51.049Z,1.87
2018-01-04T09:18:39.929Z,2.13
2018-01-04T09:21:15.576Z,2.80
2018-01-04T09:23:46.320Z,1.23
2018-01-04T09:26:17.095Z,3.03
2018-01-04T09:28:51.557Z,1.60
2018-01-04T09:31:24.364Z,2.62
2018-01-04T09:33:57.137Z,1.15
2018-01-04T09:36:27.901Z,1.05
2018-01-04T09:39:11.244Z,1.30
2018-01-04T09:41:45.940Z,3.05
2018-01-04T09:44:20.561Z,2.00
2018-01-04T09:47:03.123Z,4.50
2018-01-04T09:49:37.589Z,2.92
2018-01-04T09:52:13.962Z,0.70
2018-01-04T09:54:44.717Z,1.05
2018-01-04T09:57:15.488Z,1.60
2018-01-04T09:59:46.268Z,2.63
2018-01-04T10:02:17.025Z,1.20
2018-01-04T10:04:51.300Z,0.80
2018-01-04T10:07:28.693Z,1.17
2018-01-04T10:10:03.324Z,1.08
2018-01-04T10:12:36.112Z,1.80
2018-01-04T10:15:06.855Z,3.62
2018-01-04T10:17:37.689Z,1.73
2018-01-04T10:20:08.384Z,1.30
2018-01-04T10:22:39.252Z,1.87
2018-01-04T10:25:14.164Z,1.53
2018-01-04T10:27:50.669Z,1.65
2018-01-04T10:30:22.533Z,1.95
2018-01-04T10:32:54.381Z,2.33
2018-01-04T10:35:25.193Z,1.83
2018-01-04T10:37:56.048Z,1.20
2018-01-04T10:40:33.695Z,1.10
2018-01-04T10:43:08.175Z,1.98
2018-01-04T10:45:39.029Z,2.85
2018-01-04T10:48:09.792Z,1.17
2018-01-04T10:50:41.521Z,1.43
2018-01-04T10:53:18.048Z,1.85
2018-01-04T10:56:00.356Z,1.65
2018-01-04T10:58:31.224Z,1.60
2018-01-04T11:01:03.049Z,1.63
2018-01-04T11:03:39.893Z,1.40
2018-01-04T11:06:21.308Z,1.25
2018-01-04T11:08:52.164Z,1.75
2018-01-04T11:11:24.006Z,1.10
2018-01-04T11:13:55.889Z,1.50
2018-01-04T11:19:25.080Z,1.10
2018-01-04T11:22:00.529Z,1.33
2018-01-04T11:24:38.545Z,1.48
2018-01-04T11:27:13.371Z,1.20
2018-01-04T11:29:44.198Z,1.27
2018-01-04T11:32:19.557Z,1.20
2018-01-04T11:34:51.417Z,2.22
2018-01-04T11:37:28.588Z,1.12
2018-01-04T11:40:05.689Z,1.30
2018-01-04T11:42:36.468Z,1.20
2018-01-04T11:45:07.244Z,2.00
2018-01-04T11:47:38.006Z,0.90
2018-01-04T11:50:09.855Z,1.30
2018-01-04T11:52:40.602Z,1.48
2018-01-04T11:55:15.546Z,1.63
2018-01-04T11:57:46.306Z,1.40
2018-01-04T12:00:17.104Z,1.50
2018-01-04T12:02:47.924Z,3.40
2018-01-04T12:05:18.692Z,1.13
2018-01-04T12:07:50.504Z,1.53
2018-01-04T12:10:21.268Z,2.40
2018-01-04T12:12:52.094Z,1.47
2018-01-04T12:15:25.999Z,1.10
2018-01-04T12:17:58.868Z,1.45
2018-01-04T12:20:38.114Z,2.55
2018-01-04T12:23:08.885Z,2.00
2018-01-04T12:25:40.724Z,2.20
2018-01-04T12:28:11.512Z,1.60
2018-01-04T12:30:42.309Z,2.10
2018-01-04T12:33:13.057Z,4.03
2018-01-04T12:35:43.836Z,5.10
2018-01-04T12:38:16.601Z,1.37
2018-01-04T12:40:47.402Z,1.87
2018-01-04T12:43:18.180Z,1.70
2018-01-04T12:45:48.956Z,1.70
2018-01-04T12:48:19.726Z,1.70
2018-01-04T12:50:50.500Z,2.00
2018-01-04T12:53:21.281Z,2.20
2018-01-04T12:55:52.077Z,2.57
2018-01-04T12:58:22.847Z,1.97
2018-01-04T13:00:53.662Z,2.03
2018-01-04T13:03:26.521Z,2.23
2018-01-04T13:05:57.333Z,2.10
2018-01-04T13:08:28.092Z,2.20
2018-01-04T13:10:58.879Z,2.00
2018-01-04T13:13:29.641Z,1.50
2018-01-04T13:16:00.429Z,2.80
2018-01-04T13:18:31.289Z,4.33
2018-01-04T13:21:08.768Z,1.60
2018-01-04T13:23:39.543Z,2.28
2018-01-04T13:26:10.320Z,2.33
2018-01-04T13:28:52.721Z,2.20
2018-01-04T13:31:23.501Z,2.20
2018-01-04T13:33:54.280Z,2.43
2018-01-04T13:36:25.057Z,2.40
2018-01-04T13:38:55.924Z,3.40
2018-01-04T13:41:26.705Z,7.33
2018-01-04T13:43:57.456Z,12.80
2018-01-04T13:46:28.328Z,3.30
2018-01-04T13:48:59.125Z,2.90
2018-01-04T13:51:29.942Z,3.03
2018-01-04T13:54:02.817Z,2.63
2018-01-04T13:56:33.637Z,2.80
2018-01-04T13:59:05.501Z,3.10
2018-01-04T14:01:36.343Z,4.18
2018-01-04T14:04:07.140Z,3.83
2018-01-04T14:06:41.104Z,2.40
2018-01-04T14:09:13.960Z,2.75
2018-01-04T14:11:44.736Z,2.95
2018-01-04T14:14:15.506Z,3.00
2018-01-04T14:16:46.312Z,3.03
2018-01-04T14:19:18.133Z,2.90
2018-01-04T14:21:48.981Z,6.53
2018-01-04T14:24:19.744Z,3.63
2018-01-04T14:26:50.521Z,11.60
2018-01-04T14:29:21.279Z,60.93
2018-01-04T14:31:57.126Z,24.80
2018-01-04T14:34:27.886Z,5.18
2018-01-04T14:36:58.648Z,5.47
2018-01-04T14:39:29.426Z,4.37
2018-01-04T14:42:00.250Z,4.80
2018-01-04T14:44:31.093Z,5.70
2018-01-04T14:47:16.184Z,3.80
2018-01-04T14:49:46.941Z,4.95
2018-01-04T14:52:17.716Z,4.47
2018-01-04T14:54:53.613Z,3.90
2018-01-04T14:57:24.390Z,3.72
2018-01-04T14:59:58.456Z,4.27
2018-01-04T15:02:29.227Z,3.70
2018-01-04T15:04:59.999Z,3.60
2018-01-04T15:07:32.795Z,4.30
2018-01-04T15:10:03.571Z,4.53
2018-01-04T15:12:34.366Z,4.73
2018-01-04T15:15:05.113Z,5.33
2018-01-04T15:17:36.949Z,8.90
2018-01-04T15:20:14.737Z,8.00
2018-01-04T15:22:45.596Z,5.62
2018-01-04T15:25:20.101Z,4.93
2018-01-04T15:27:55.579Z,5.70
2018-01-04T15:30:33.133Z,5.25
2018-01-04T15:33:03.974Z,5.40
2018-01-04T15:35:34.963Z,5.10
2018-01-04T15:38:05.829Z,5.70
2018-01-04T15:40:36.584Z,6.57
2018-01-04T15:43:11.018Z,6.50
2018-01-04T15:45:43.786Z,6.50
2018-01-04T15:48:15.581Z,6.87
2018-01-04T15:50:46.332Z,7.53
2018-01-04T15:53:17.110Z,9.90
2018-01-04T15:55:52.655Z,7.50
2018-01-04T15:58:23.428Z,7.82
2018-01-04T16:00:54.175Z,9.17
2018-01-04T16:03:28.261Z,9.17
2018-01-04T16:06:02.765Z,9.45
2018-01-04T16:08:35.554Z,9.60
2018-01-04T16:11:06.385Z,10.90
2018-01-04T16:13:40.307Z,9.60
2018-01-04T16:16:23.519Z,10.82
2018-01-04T16:18:56.324Z,10.48
2018-01-04T16:21:28.162Z,9.05
2018-01-04T16:24:11.205Z,9.57
2018-01-04T16:26:46.745Z,9.90
2018-01-04T16:29:19.554Z,10.00
2018-01-04T16:31:52.391Z,10.85
2018-01-04T16:34:23.248Z,11.15
2018-01-04T16:37:06.153Z,12.63
2018-01-04T16:39:37.165Z,11.07
2018-01-04T16:42:08.049Z,10.45
2018-01-04T16:44:38.913Z,10.87
2018-01-04T16:47:11.740Z,10.60
2018-01-04T16:49:42.542Z,10.52
2018-01-04T16:52:13.288Z,10.57
2018-01-04T16:54:45.092Z,14.07
2018-01-04T16:57:15.882Z,13.30
2018-01-04T16:59:46.628Z,13.50
2018-01-04T17:02:17.389Z,14.40
2018-01-04T17:04:55.024Z,11.37
2018-01-04T17:07:32.457Z,10.45
2018-01-04T17:10:03.245Z,11.15
2018-01-04T17:12:33.985Z,10.70
2018-01-04T17:15:04.816Z,9.40
2018-01-04T17:17:37.684Z,10.20
2018-01-04T17:20:13.424Z,9.98
2018-01-04T17:22:46.189Z,11.77
2018-01-04T17:25:17.064Z,8.57
2018-01-04T17:27:54.923Z,9.10
2018-01-04T17:30:31.891Z,8.55
2018-01-04T17:33:02.654Z,10.68
2018-01-04T17:35:38.484Z,8.70
2018-01-04T17:38:12.913Z,9.75
2018-01-04T17:40:43.678Z,8.80
2018-01-04T17:43:15.528Z,12.70
2018-01-04T17:45:46.316Z,9.13
2018-01-04T17:48:28.467Z,10.07
2018-01-04T17:51:00.912Z,11.32
2018-01-04T17:53:31.767Z,9.18
2018-01-04T17:56:02.573Z,10.00
2018-01-04T17:58:39.010Z,9.33
2018-01-04T18:01:09.793Z,10.20
2018-01-04T18:03:51.517Z,8.87
2018-01-04T18:06:22.397Z,8.80
2018-01-04T18:08:57.084Z,8.20
2018-01-04T18:11:27.902Z,9.95
2018-01-04T18:13:58.687Z,9.30
2018-01-04T18:16:34.096Z,8.67
2018-01-04T18:19:05.742Z,9.07
2018-01-04T18:21:36.652Z,8.67
2018-01-04T18:24:07.596Z,9.47
2018-01-04T18:26:43.528Z,8.73
2018-01-04T18:29:18.304Z,9.10
2018-01-04T18:31:50.236Z,9.50
2018-01-04T18:34:21.005Z,8.82
2018-01-04T18:36:51.883Z,9.80
2018-01-04T18:39:22.706Z,10.00
2018-01-04T18:41:53.561Z,8.20
2018-01-04T18:44:24.395Z,11.87
2018-01-04T18:46:55.213Z,10.93
2018-01-04T18:49:26.059Z,9.63
2018-01-04T18:51:56.892Z,8.13
2018-01-04T18:54:27.736Z,7.93
2018-01-04T18:56:58.592Z,7.30
2018-01-04T18:59:30.404Z,6.47
2018-01-04T19:02:01.537Z,12.10
2018-01-04T19:04:32.418Z,7.22
2018-01-04T19:07:03.347Z,8.87
2018-01-04T19:09:34.184Z,8.00
2018-01-04T19:12:06.079Z,7.10
2018-01-04T19:14:36.861Z,8.88
2018-01-04T19:17:07.697Z,8.10
2018-01-04T19:19:38.505Z,9.90
2018-01-04T19:22:09.294Z,7.83
2018-01-04T19:24:40.083Z,9.13
2018-01-04T19:27:11.009Z,7.90
2018-01-04T19:29:41.867Z,7.57
2018-01-04T19:32:12.812Z,7.20
2018-01-04T19:34:43.609Z,7.70
2018-01-04T19:37:14.423Z,6.93
2018-01-04T19:39:46.678Z,10.20
2018-01-04T19:42:17.531Z,8.27
2018-01-04T19:44:48.405Z,10.93
2018-01-04T19:47:19.356Z,8.90
2018-01-04T19:49:50.350Z,9.07
2018-01-04T19:52:21.156Z,8.35
2018-01-04T19:54:52.064Z,9.03
2018-01-04T19:57:22.927Z,9.00
2018-01-04T19:59:53.731Z,8.73
2018-01-04T20:02:24.601Z,8.50
2018-01-04T20:04:57.565Z,7.70
2018-01-04T20:07:28.376Z,9.63
2018-01-04T20:09:59.164Z,9.30
2018-01-04T20:12:30.001Z,10.07
2018-01-04T20:15:00.781Z,9.00
2018-01-04T20:17:31.714Z,8.70
2018-01-04T20:20:02.576Z,8.90
2018-01-04T20:22:33.414Z,8.13
2018-01-04T20:25:06.408Z,8.80
2018-01-04T20:27:37.212Z,8.88
2018-01-04T20:30:08.013Z,9.53
2018-01-04T20:32:40.950Z,10.37
2018-01-04T20:35:11.771Z,9.05
2018-01-04T20:37:42.592Z,8.47
2018-01-04T20:40:15.434Z,8.43
2018-01-04T20:42:46.267Z,9.27
2018-01-04T20:45:17.101Z,8.80
2018-01-04T20:47:47.918Z,9.03
2018-01-04T20:50:18.729Z,8.10
2018-01-04T20:52:49.576Z,8.77
2018-01-04T20:55:20.413Z,9.00
2018-01-04T20:57:51.315Z,8.60
2018-01-04T21:00:22.115Z,9.50
2018-01-04T21:02:52.957Z,11.23
2018-01-04T21:05:23.787Z,9.23
2018-01-04T21:07:54.638Z,9.37
2018-01-04T21:10:32.444Z,10.40
2018-01-04T21:13:03.268Z,11.93
2018-01-04T21:15:34.093Z,9.20
2018-01-04T21:18:04.957Z,7.40
2018-01-04T21:20:35.814Z,9.30
2018-01-04T21:23:10.096Z,7.60
2018-01-04T21:25:40.913Z,8.60
2018-01-04T21:28:20.177Z,8.07
2018-01-04T21:30:51.019Z,11.90
2018-01-04T21:33:21.847Z,11.60
2018-01-04T21:35:52.685Z,12.67
2018-01-04T21:38:24.568Z,16.60
2018-01-04T21:40:55.389Z,9.82
2018-01-04T21:43:26.234Z,7.90
2018-01-04T21:45:57.059Z,11.03
2018-01-04T21:48:27.928Z,3.00
2018-01-04T21:50:58.758Z,13.47
2018-01-04T21:53:29.612Z,10.50
2018-01-04T21:56:00.427Z,6.87
2018-01-04T21:58:31.333Z,8.50
2018-01-04T22:01:02.448Z,7.75
2018-01-04T22:03:33.295Z,7.30
2018-01-04T22:06:04.129Z,7.60
2018-01-04T22:08:51.102Z,7.40
2018-01-04T22:11:21.968Z,7.82
2018-01-04T22:13:52.831Z,8.07
2018-01-04T22:16:24.741Z,7.67
2018-01-04T22:19:01.997Z,9.10
2018-01-04T22:21:32.927Z,10.85
2018-01-04T22:24:04.767Z,13.70
2018-01-04T22:26:35.724Z,11.80
2018-01-04T22:29:06.944Z,8.50
2018-01-04T22:31:37.853Z,13.60
2018-01-04T22:34:08.924Z,10.70
2018-01-04T22:36:39.744Z,8.98
2018-01-04T22:39:10.609Z,8.87
2018-01-04T22:41:46.114Z,10.57
2018-01-04T22:44:16.998Z,8.73
2018-01-04T22:46:48.022Z,9.10
2018-01-04T22:49:19.963Z,10.40
2018-01-04T22:51:50.851Z,8.80
2018-01-04T22:54:21.704Z,11.93
2018-01-04T22:56:52.517Z,13.30
2018-01-04T22:59:23.355Z,10.57
2018-01-04T23:01:56.122Z,10.53
2018-01-04T23:04:27.270Z,14.48
2018-01-04T23:06:58.085Z,8.75
2018-01-04T23:09:29.092Z,10.43
2018-01-04T23:11:59.900Z,9.27
2018-01-04T23:14:30.828Z,5.80
2018-01-04T23:17:01.649Z,4.90
2018-01-04T23:19:32.467Z,3.50
2018-01-04T23:22:07.291Z,2.30
2018-01-04T23:24:38.156Z,0.60
2018-01-04T23:27:08.979Z,1.73
2018-01-04T23:29:40.075Z,0.80
2018-01-04T23:32:11.057Z,0.88
2018-01-04T23:34:42.273Z,1.77
2018-01-04T23:37:13.160Z,1.20
2018-01-04T23:39:44.100Z,0.90
2018-01-04T23:42:15.148Z,1.97
2018-01-04T23:44:45.985Z,0.70
2018-01-04T23:47:16.788Z,0.90
2018-01-04T23:49:47.614Z,1.20
2018-01-04T23:52:18.433Z,1.63
2018-01-04T23:54:49.210Z,1.00
2018-01-04T23:57:20.022Z,0.90
2018-01-04T23:59:50.867Z,1.17
